sensor_id;sensor_type;location;lat;lon;timestamp;P1;durP1;ratioP1;P2;durP2;ratioP2
49738;SDS011;53662;50.114;8.626;2024-02-26T00:01:08;1.02;;;0.93;;
49738;SDS011;53662;50.114;8.626;2024-02-26T00:03:34;4.82;;;0.80;;
49738;SDS011;53662;50.114;8.626;2024-02-26T00:06:01;4.65;;;1.08;;
49738;SDS011;53662;50.114;8.626;2024-02-26T00:08:27;1.02;;;0.82;;
49738;SDS011;53662;50.114;8.626;2024-02-26T00:10:53;1.15;;;1.05;;
49738;SDS011;53662;50.114;8.626;2024-02-26T00:13:19;1.73;;;0.90;;
49738;SDS011;53662;50.114;8.626;2024-02-26T00:15:45;0.90;;;0.90;;
49738;SDS011;53662;50.114;8.626;2024-02-26T00:18:11;0.98;;;0.98;;
49738;SDS011;53662;50.114;8.626;2024-02-26T00:20:37;2.15;;;0.80;;
49738;SDS011;53662;50.114;8.626;2024-02-26T00:23:05;1.42;;;0.98;;
49738;SDS011;53662;50.114;8.626;2024-02-26T00:25:31;0.80;;;0.80;;
49738;SDS011;53662;50.114;8.626;2024-02-26T00:27:56;2.25;;;0.90;;
49738;SDS011;53662;50.114;8.626;2024-02-26T00:30:22;1.00;;;0.98;;
49738;SDS011;53662;50.114;8.626;2024-02-26T00:32:48;1.98;;;1.40;;
49738;SDS011;53662;50.114;8.626;2024-02-26T00:35:14;5.35;;;1.30;;
49738;SDS011;53662;50.114;8.626;2024-02-26T00:37:41;2.47;;;0.95;;
49738;SDS011;53662;50.114;8.626;2024-02-26T00:40:09;1.35;;;1.00;;
49738;SDS011;53662;50.114;8.626;2024-02-26T00:42:35;0.98;;;0.98;;
49738;SDS011;53662;50.114;8.626;2024-02-26T00:45:01;1.35;;;0.80;;
49738;SDS011;53662;50.114;8.626;2024-02-26T00:47:27;1.83;;;1.20;;
49738;SDS011;53662;50.114;8.626;2024-02-26T00:49:53;1.25;;;0.93;;
49738;SDS011;53662;50.114;8.626;2024-02-26T00:52:19;1.15;;;1.00;;
49738;SDS011;53662;50.114;8.626;2024-02-26T00:54:45;1.25;;;0.90;;
49738;SDS011;53662;50.114;8.626;2024-02-26T00:57:11;0.90;;;0.90;;
49738;SDS011;53662;50.114;8.626;2024-02-26T00:59:37;0.95;;;0.95;;
49738;SDS011;53662;50.114;8.626;2024-02-26T01:02:03;1.80;;;1.20;;
49738;SDS011;53662;50.114;8.626;2024-02-26T01:04:31;3.35;;;1.20;;
49738;SDS011;53662;50.114;8.626;2024-02-26T01:06:59;1.33;;;0.98;;
49738;SDS011;53662;50.114;8.626;2024-02-26T01:09:24;0.88;;;0.85;;
49738;SDS011;53662;50.114;8.626;2024-02-26T01:11:50;0.90;;;0.90;;
49738;SDS011;53662;50.114;8.626;2024-02-26T01:14:16;1.27;;;0.93;;
49738;SDS011;53662;50.114;8.626;2024-02-26T01:16:42;1.45;;;0.90;;
49738;SDS011;53662;50.114;8.626;2024-02-26T01:19:08;0.85;;;0.85;;
49738;SDS011;53662;50.114;8.626;2024-02-26T01:21:34;1.10;;;1.10;;
49738;SDS011;53662;50.114;8.626;2024-02-26T01:24:00;1.17;;;1.05;;
49738;SDS011;53662;50.114;8.626;2024-02-26T01:26:26;1.52;;;0.98;;
49738;SDS011;53662;50.114;8.626;2024-02-26T01:28:52;2.08;;;1.10;;
49738;SDS011;53662;50.114;8.626;2024-02-26T01:31:19;1.92;;;1.05;;
49738;SDS011;53662;50.114;8.626;2024-02-26T01:33:45;1.48;;;1.38;;
49738;SDS011;53662;50.114;8.626;2024-02-26T01:36:11;1.50;;;1.15;;
49738;SDS011;53662;50.114;8.626;2024-02-26T01:38:37;1.10;;;1.10;;
49738;SDS011;53662;50.114;8.626;2024-02-26T01:41:03;1.15;;;1.05;;
49738;SDS011;53662;50.114;8.626;2024-02-26T01:43:29;1.13;;;1.13;;
49738;SDS011;53662;50.114;8.626;2024-02-26T01:45:55;1.17;;;1.17;;
49738;SDS011;53662;50.114;8.626;2024-02-26T01:48:21;1.77;;;1.30;;
49738;SDS011;53662;50.114;8.626;2024-02-26T01:50:47;5.18;;;1.38;;
49738;SDS011;53662;50.114;8.626;2024-02-26T01:53:13;1.83;;;1.20;;
49738;SDS011;53662;50.114;8.626;2024-02-26T01:55:39;1.33;;;1.23;;
49738;SDS011;53662;50.114;8.626;2024-02-26T01:58:05;1.30;;;1.20;;
49738;SDS011;53662;50.114;8.626;2024-02-26T02:00:32;1.33;;;1.23;;
49738;SDS011;53662;50.114;8.626;2024-02-26T02:02:58;1.02;;;0.93;;
49738;SDS011;53662;50.114;8.626;2024-02-26T02:05:24;1.23;;;1.13;;
49738;SDS011;53662;50.114;8.626;2024-02-26T02:07:50;1.10;;;1.10;;
49738;SDS011;53662;50.114;8.626;2024-02-26T02:10:17;1.70;;;1.50;;
49738;SDS011;53662;50.114;8.626;2024-02-26T02:12:47;1.48;;;1.38;;
49738;SDS011;53662;50.114;8.626;2024-02-26T02:15:13;1.48;;;1.38;;
49738;SDS011;53662;50.114;8.626;2024-02-26T02:17:39;1.42;;;1.20;;
49738;SDS011;53662;50.114;8.626;2024-02-26T02:20:08;1.40;;;1.30;;
49738;SDS011;53662;50.114;8.626;2024-02-26T02:22:34;1.52;;;1.27;;
49738;SDS011;53662;50.114;8.626;2024-02-26T02:24:59;1.65;;;1.40;;
49738;SDS011;53662;50.114;8.626;2024-02-26T02:27:26;1.85;;;1.55;;
49738;SDS011;53662;50.114;8.626;2024-02-26T02:29:52;2.10;;;1.75;;
49738;SDS011;53662;50.114;8.626;2024-02-26T02:32:18;1.70;;;1.60;;
49738;SDS011;53662;50.114;8.626;2024-02-26T02:34:45;1.35;;;1.33;;
49738;SDS011;53662;50.114;8.626;2024-02-26T02:37:11;1.52;;;1.42;;
49738;SDS011;53662;50.114;8.626;2024-02-26T02:39:37;1.98;;;1.23;;
49738;SDS011;53662;50.114;8.626;2024-02-26T02:42:03;2.10;;;1.17;;
49738;SDS011;53662;50.114;8.626;2024-02-26T02:44:29;1.35;;;1.25;;
49738;SDS011;53662;50.114;8.626;2024-02-26T02:46:55;3.53;;;1.42;;
49738;SDS011;53662;50.114;8.626;2024-02-26T02:49:23;3.03;;;1.55;;
49738;SDS011;53662;50.114;8.626;2024-02-26T02:51:49;1.75;;;1.55;;
49738;SDS011;53662;50.114;8.626;2024-02-26T02:54:15;3.47;;;1.50;;
49738;SDS011;53662;50.114;8.626;2024-02-26T02:56:41;3.42;;;1.55;;
49738;SDS011;53662;50.114;8.626;2024-02-26T02:59:07;2.45;;;1.80;;
49738;SDS011;53662;50.114;8.626;2024-02-26T03:01:33;1.50;;;1.40;;
49738;SDS011;53662;50.114;8.626;2024-02-26T03:03:59;1.60;;;1.50;;
49738;SDS011;53662;50.114;8.626;2024-02-26T03:06:25;3.08;;;1.20;;
49738;SDS011;53662;50.114;8.626;2024-02-26T03:08:52;1.73;;;1.40;;
49738;SDS011;53662;50.114;8.626;2024-02-26T03:11:19;1.83;;;1.73;;
49738;SDS011;53662;50.114;8.626;2024-02-26T03:13:45;0.93;;;0.93;;
49738;SDS011;53662;50.114;8.626;2024-02-26T03:16:11;2.10;;;1.83;;
49738;SDS011;53662;50.114;8.626;2024-02-26T03:18:40;2.58;;;1.70;;
49738;SDS011;53662;50.114;8.626;2024-02-26T03:21:06;1.75;;;1.65;;
49738;SDS011;53662;50.114;8.626;2024-02-26T03:23:32;3.22;;;1.75;;
49738;SDS011;53662;50.114;8.626;2024-02-26T03:26:02;3.13;;;1.55;;
49738;SDS011;53662;50.114;8.626;2024-02-26T03:28:28;1.70;;;1.60;;
49738;SDS011;53662;50.114;8.626;2024-02-26T03:30:54;1.48;;;1.38;;
49738;SDS011;53662;50.114;8.626;2024-02-26T03:33:20;2.17;;;1.67;;
49738;SDS011;53662;50.114;8.626;2024-02-26T03:35:46;2.05;;;1.60;;
49738;SDS011;53662;50.114;8.626;2024-02-26T03:38:12;1.63;;;1.52;;
49738;SDS011;53662;50.114;8.626;2024-02-26T03:40:38;2.80;;;1.60;;
49738;SDS011;53662;50.114;8.626;2024-02-26T03:43:04;1.80;;;1.70;;
49738;SDS011;53662;50.114;8.626;2024-02-26T03:45:32;2.22;;;1.30;;
49738;SDS011;53662;50.114;8.626;2024-02-26T03:47:58;3.35;;;1.20;;
49738;SDS011;53662;50.114;8.626;2024-02-26T03:50:24;1.65;;;1.63;;
49738;SDS011;53662;50.114;8.626;2024-02-26T03:52:50;1.27;;;0.95;;
49738;SDS011;53662;50.114;8.626;2024-02-26T03:55:16;3.22;;;1.88;;
49738;SDS011;53662;50.114;8.626;2024-02-26T03:57:46;3.17;;;1.70;;
49738;SDS011;53662;50.114;8.626;2024-02-26T04:00:12;2.22;;;1.60;;
49738;SDS011;53662;50.114;8.626;2024-02-26T04:02:38;1.90;;;1.60;;
49738;SDS011;53662;50.114;8.626;2024-02-26T04:05:04;3.38;;;1.60;;
49738;SDS011;53662;50.114;8.626;2024-02-26T04:07:30;1.95;;;1.42;;
49738;SDS011;53662;50.114;8.626;2024-02-26T04:09:56;2.00;;;1.70;;
49738;SDS011;53662;50.114;8.626;2024-02-26T04:12:22;1.98;;;1.50;;
49738;SDS011;53662;50.114;8.626;2024-02-26T04:14:48;3.70;;;1.55;;
49738;SDS011;53662;50.114;8.626;2024-02-26T04:17:14;2.40;;;1.58;;
49738;SDS011;53662;50.114;8.626;2024-02-26T04:19:40;2.13;;;1.45;;
49738;SDS011;53662;50.114;8.626;2024-02-26T04:22:06;1.55;;;1.45;;
49738;SDS011;53662;50.114;8.626;2024-02-26T04:24:32;7.60;;;2.05;;
49738;SDS011;53662;50.114;8.626;2024-02-26T04:26:58;1.65;;;1.50;;
49738;SDS011;53662;50.114;8.626;2024-02-26T04:29:24;3.42;;;1.45;;
49738;SDS011;53662;50.114;8.626;2024-02-26T04:31:50;1.90;;;1.33;;
49738;SDS011;53662;50.114;8.626;2024-02-26T04:34:16;2.70;;;1.40;;
49738;SDS011;53662;50.114;8.626;2024-02-26T04:36:41;2.17;;;1.50;;
49738;SDS011;53662;50.114;8.626;2024-02-26T04:39:08;7.13;;;1.90;;
49738;SDS011;53662;50.114;8.626;2024-02-26T04:41:35;2.10;;;1.88;;
49738;SDS011;53662;50.114;8.626;2024-02-26T04:44:01;3.47;;;1.70;;
49738;SDS011;53662;50.114;8.626;2024-02-26T04:46:27;2.13;;;1.92;;
49738;SDS011;53662;50.114;8.626;2024-02-26T04:48:53;2.17;;;1.73;;
49738;SDS011;53662;50.114;8.626;2024-02-26T04:51:19;2.33;;;1.60;;
49738;SDS011;53662;50.114;8.626;2024-02-26T04:53:45;1.88;;;1.77;;
49738;SDS011;53662;50.114;8.626;2024-02-26T04:56:11;2.15;;;1.95;;
49738;SDS011;53662;50.114;8.626;2024-02-26T04:58:37;6.68;;;2.05;;
49738;SDS011;53662;50.114;8.626;2024-02-26T05:01:03;4.15;;;2.22;;
49738;SDS011;53662;50.114;8.626;2024-02-26T05:03:29;2.08;;;1.58;;
49738;SDS011;53662;50.114;8.626;2024-02-26T05:05:55;2.05;;;1.80;;
49738;SDS011;53662;50.114;8.626;2024-02-26T05:08:23;2.35;;;2.10;;
49738;SDS011;53662;50.114;8.626;2024-02-26T05:10:48;3.72;;;2.15;;
49738;SDS011;53662;50.114;8.626;2024-02-26T05:13:14;2.55;;;1.95;;
49738;SDS011;53662;50.114;8.626;2024-02-26T05:15:42;2.83;;;2.20;;
49738;SDS011;53662;50.114;8.626;2024-02-26T05:18:10;2.75;;;2.33;;
49738;SDS011;53662;50.114;8.626;2024-02-26T05:20:35;4.70;;;2.25;;
49738;SDS011;53662;50.114;8.626;2024-02-26T05:23:02;2.40;;;2.03;;
49738;SDS011;53662;50.114;8.626;2024-02-26T05:25:28;2.65;;;2.05;;
49738;SDS011;53662;50.114;8.626;2024-02-26T05:27:55;4.18;;;2.20;;
49738;SDS011;53662;50.114;8.626;2024-02-26T05:30:21;3.50;;;2.45;;
49738;SDS011;53662;50.114;8.626;2024-02-26T05:32:47;5.25;;;2.33;;
49738;SDS011;53662;50.114;8.626;2024-02-26T05:35:13;3.75;;;2.05;;
49738;SDS011;53662;50.114;8.626;2024-02-26T05:37:40;4.80;;;2.17;;
49738;SDS011;53662;50.114;8.626;2024-02-26T05:40:06;6.28;;;2.95;;
49738;SDS011;53662;50.114;8.626;2024-02-26T05:42:32;4.13;;;3.28;;
49738;SDS011;53662;50.114;8.626;2024-02-26T05:44:58;6.68;;;2.75;;
49738;SDS011;53662;50.114;8.626;2024-02-26T05:47:24;6.80;;;2.95;;
49738;SDS011;53662;50.114;8.626;2024-02-26T05:49:50;7.90;;;3.47;;
49738;SDS011;53662;50.114;8.626;2024-02-26T05:52:16;5.93;;;2.65;;
49738;SDS011;53662;50.114;8.626;2024-02-26T05:54:42;7.60;;;2.72;;
49738;SDS011;53662;50.114;8.626;2024-02-26T05:57:08;7.05;;;2.83;;
49738;SDS011;53662;50.114;8.626;2024-02-26T05:59:34;5.22;;;2.83;;
49738;SDS011;53662;50.114;8.626;2024-02-26T06:02:00;4.55;;;3.10;;
49738;SDS011;53662;50.114;8.626;2024-02-26T06:04:26;6.82;;;2.83;;
49738;SDS011;53662;50.114;8.626;2024-02-26T06:06:51;6.88;;;2.75;;
49738;SDS011;53662;50.114;8.626;2024-02-26T06:09:17;13.32;;;3.33;;
49738;SDS011;53662;50.114;8.626;2024-02-26T06:11:43;6.28;;;2.95;;
49738;SDS011;53662;50.114;8.626;2024-02-26T06:14:09;5.30;;;3.55;;
49738;SDS011;53662;50.114;8.626;2024-02-26T06:16:37;23.23;;;3.70;;
49738;SDS011;53662;50.114;8.626;2024-02-26T06:19:03;22.80;;;3.85;;
49738;SDS011;53662;50.114;8.626;2024-02-26T06:21:29;7.13;;;3.33;;
49738;SDS011;53662;50.114;8.626;2024-02-26T06:23:55;8.93;;;4.13;;
49738;SDS011;53662;50.114;8.626;2024-02-26T06:26:21;6.82;;;3.78;;
49738;SDS011;53662;50.114;8.626;2024-02-26T06:28:47;5.20;;;3.22;;
49738;SDS011;53662;50.114;8.626;2024-02-26T06:31:13;23.45;;;4.32;;
49738;SDS011;53662;50.114;8.626;2024-02-26T06:33:39;16.05;;;3.90;;
49738;SDS011;53662;50.114;8.626;2024-02-26T06:36:05;6.95;;;3.30;;
49738;SDS011;53662;50.114;8.626;2024-02-26T06:38:31;6.40;;;3.92;;
49738;SDS011;53662;50.114;8.626;2024-02-26T06:40:57;14.60;;;5.63;;
49738;SDS011;53662;50.114;8.626;2024-02-26T06:43:23;12.00;;;4.22;;
49738;SDS011;53662;50.114;8.626;2024-02-26T06:45:49;11.15;;;3.72;;
49738;SDS011;53662;50.114;8.626;2024-02-26T06:48:15;8.68;;;3.50;;
49738;SDS011;53662;50.114;8.626;2024-02-26T06:50:40;11.80;;;3.40;;
49738;SDS011;53662;50.114;8.626;2024-02-26T06:53:06;16.17;;;4.43;;
49738;SDS011;53662;50.114;8.626;2024-02-26T06:55:32;29.80;;;5.65;;
49738;SDS011;53662;50.114;8.626;2024-02-26T06:57:58;28.83;;;5.60;;
49738;SDS011;53662;50.114;8.626;2024-02-26T07:00:24;24.88;;;4.18;;
49738;SDS011;53662;50.114;8.626;2024-02-26T07:02:50;9.95;;;4.30;;
49738;SDS011;53662;50.114;8.626;2024-02-26T07:05:16;18.05;;;5.13;;
49738;SDS011;53662;50.114;8.626;2024-02-26T07:07:42;13.18;;;4.53;;
49738;SDS011;53662;50.114;8.626;2024-02-26T07:10:08;9.50;;;3.95;;
49738;SDS011;53662;50.114;8.626;2024-02-26T07:12:34;8.18;;;3.70;;
49738;SDS011;53662;50.114;8.626;2024-02-26T07:15:00;17.08;;;3.95;;
49738;SDS011;53662;50.114;8.626;2024-02-26T07:17:27;5.70;;;4.35;;
49738;SDS011;53662;50.114;8.626;2024-02-26T07:19:53;9.32;;;2.20;;
49738;SDS011;53662;50.114;8.626;2024-02-26T07:22:19;7.18;;;2.55;;
49738;SDS011;53662;50.114;8.626;2024-02-26T07:24:45;9.07;;;2.15;;
49738;SDS011;53662;50.114;8.626;2024-02-26T07:27:11;2.63;;;2.05;;
49738;SDS011;53662;50.114;8.626;2024-02-26T07:29:37;5.75;;;2.30;;
49738;SDS011;53662;50.114;8.626;2024-02-26T07:32:03;12.77;;;2.50;;
49738;SDS011;53662;50.114;8.626;2024-02-26T07:34:29;4.53;;;2.22;;
49738;SDS011;53662;50.114;8.626;2024-02-26T07:36:55;15.07;;;2.58;;
49738;SDS011;53662;50.114;8.626;2024-02-26T07:39:22;13.50;;;2.70;;
49738;SDS011;53662;50.114;8.626;2024-02-26T07:41:48;16.27;;;2.55;;
49738;SDS011;53662;50.114;8.626;2024-02-26T07:44:16;7.43;;;2.90;;
49738;SDS011;53662;50.114;8.626;2024-02-26T07:46:42;5.55;;;2.58;;
49738;SDS011;53662;50.114;8.626;2024-02-26T07:49:08;4.13;;;2.70;;
49738;SDS011;53662;50.114;8.626;2024-02-26T07:51:34;6.72;;;2.22;;
49738;SDS011;53662;50.114;8.626;2024-02-26T07:54:00;8.55;;;2.40;;
49738;SDS011;53662;50.114;8.626;2024-02-26T07:56:26;5.97;;;2.40;;
49738;SDS011;53662;50.114;8.626;2024-02-26T07:58:52;13.93;;;3.15;;
49738;SDS011;53662;50.114;8.626;2024-02-26T08:01:18;22.70;;;4.43;;
49738;SDS011;53662;50.114;8.626;2024-02-26T08:03:44;10.00;;;3.33;;
49738;SDS011;53662;50.114;8.626;2024-02-26T08:06:10;5.35;;;3.35;;
49738;SDS011;53662;50.114;8.626;2024-02-26T08:08:36;7.70;;;3.13;;
49738;SDS011;53662;50.114;8.626;2024-02-26T08:11:02;4.95;;;2.65;;
49738;SDS011;53662;50.114;8.626;2024-02-26T08:13:28;28.10;;;3.85;;
49738;SDS011;53662;50.114;8.626;2024-02-26T08:15:53;6.05;;;3.45;;
49738;SDS011;53662;50.114;8.626;2024-02-26T08:18:20;13.88;;;4.68;;
49738;SDS011;53662;50.114;8.626;2024-02-26T08:20:46;11.15;;;4.05;;
49738;SDS011;53662;50.114;8.626;2024-02-26T08:23:13;4.22;;;3.83;;
49738;SDS011;53662;50.114;8.626;2024-02-26T08:25:39;5.57;;;3.35;;
49738;SDS011;53662;50.114;8.626;2024-02-26T08:28:05;6.13;;;3.47;;
49738;SDS011;53662;50.114;8.626;2024-02-26T08:30:31;6.93;;;3.53;;
49738;SDS011;53662;50.114;8.626;2024-02-26T08:32:59;8.35;;;4.15;;
49738;SDS011;53662;50.114;8.626;2024-02-26T08:35:25;5.28;;;3.67;;
49738;SDS011;53662;50.114;8.626;2024-02-26T08:37:50;4.05;;;3.70;;
49738;SDS011;53662;50.114;8.626;2024-02-26T08:40:16;10.48;;;4.00;;
49738;SDS011;53662;50.114;8.626;2024-02-26T08:42:44;6.60;;;4.43;;
49738;SDS011;53662;50.114;8.626;2024-02-26T08:45:10;6.70;;;4.40;;
49738;SDS011;53662;50.114;8.626;2024-02-26T08:47:37;5.88;;;4.50;;
49738;SDS011;53662;50.114;8.626;2024-02-26T08:50:03;6.78;;;4.00;;
49738;SDS011;53662;50.114;8.626;2024-02-26T08:52:30;9.95;;;4.57;;
49738;SDS011;53662;50.114;8.626;2024-02-26T08:54:55;5.57;;;4.78;;
49738;SDS011;53662;50.114;8.626;2024-02-26T08:57:22;7.38;;;4.50;;
49738;SDS011;53662;50.114;8.626;2024-02-26T08:59:48;5.10;;;4.10;;
49738;SDS011;53662;50.114;8.626;2024-02-26T09:02:14;8.35;;;4.38;;
49738;SDS011;53662;50.114;8.626;2024-02-26T09:04:40;12.23;;;4.53;;
49738;SDS011;53662;50.114;8.626;2024-02-26T09:07:06;6.82;;;4.60;;
49738;SDS011;53662;50.114;8.626;2024-02-26T09:09:32;4.82;;;4.35;;
49738;SDS011;53662;50.114;8.626;2024-02-26T09:11:58;5.13;;;4.60;;
49738;SDS011;53662;50.114;8.626;2024-02-26T09:14:24;9.02;;;4.75;;
49738;SDS011;53662;50.114;8.626;2024-02-26T09:16:50;7.55;;;4.75;;
49738;SDS011;53662;50.114;8.626;2024-02-26T09:19:17;8.85;;;4.93;;
49738;SDS011;53662;50.114;8.626;2024-02-26T09:21:43;11.35;;;5.28;;
49738;SDS011;53662;50.114;8.626;2024-02-26T09:24:09;5.88;;;4.53;;
49738;SDS011;53662;50.114;8.626;2024-02-26T09:26:36;9.23;;;5.70;;
49738;SDS011;53662;50.114;8.626;2024-02-26T09:29:02;5.85;;;5.03;;
49738;SDS011;53662;50.114;8.626;2024-02-26T09:31:29;7.45;;;4.95;;
49738;SDS011;53662;50.114;8.626;2024-02-26T09:33:55;7.40;;;5.10;;
49738;SDS011;53662;50.114;8.626;2024-02-26T09:36:21;17.63;;;5.43;;
49738;SDS011;53662;50.114;8.626;2024-02-26T09:38:47;13.68;;;5.28;;
49738;SDS011;53662;50.114;8.626;2024-02-26T09:41:16;11.30;;;5.18;;
49738;SDS011;53662;50.114;8.626;2024-02-26T09:43:43;10.75;;;5.22;;
49738;SDS011;53662;50.114;8.626;2024-02-26T09:46:11;9.27;;;5.00;;
49738;SDS011;53662;50.114;8.626;2024-02-26T09:48:37;7.68;;;5.28;;
49738;SDS011;53662;50.114;8.626;2024-02-26T09:51:03;10.65;;;5.35;;
49738;SDS011;53662;50.114;8.626;2024-02-26T09:53:30;7.40;;;5.07;;
49738;SDS011;53662;50.114;8.626;2024-02-26T09:56:04;24.00;;;6.00;;
49738;SDS011;53662;50.114;8.626;2024-02-26T09:58:30;8.70;;;4.82;;
49738;SDS011;53662;50.114;8.626;2024-02-26T10:00:56;7.97;;;4.80;;
49738;SDS011;53662;50.114;8.626;2024-02-26T10:03:31;8.63;;;4.60;;
49738;SDS011;53662;50.114;8.626;2024-02-26T10:06:00;8.57;;;4.68;;
49738;SDS011;53662;50.114;8.626;2024-02-26T10:08:29;9.27;;;4.78;;
49738;SDS011;53662;50.114;8.626;2024-02-26T10:10:55;7.28;;;4.40;;
49738;SDS011;53662;50.114;8.626;2024-02-26T10:13:21;9.68;;;4.63;;
49738;SDS011;53662;50.114;8.626;2024-02-26T10:15:48;9.13;;;4.78;;
49738;SDS011;53662;50.114;8.626;2024-02-26T10:18:14;7.50;;;4.45;;
49738;SDS011;53662;50.114;8.626;2024-02-26T10:20:40;9.48;;;4.90;;
49738;SDS011;53662;50.114;8.626;2024-02-26T10:23:06;4.18;;;3.78;;
49738;SDS011;53662;50.114;8.626;2024-02-26T10:25:32;6.13;;;4.80;;
49738;SDS011;53662;50.114;8.626;2024-02-26T10:28:01;4.93;;;4.43;;
49738;SDS011;53662;50.114;8.626;2024-02-26T10:30:27;6.50;;;4.25;;
49738;SDS011;53662;50.114;8.626;2024-02-26T10:32:54;5.88;;;4.15;;
49738;SDS011;53662;50.114;8.626;2024-02-26T10:35:20;4.13;;;3.83;;
49738;SDS011;53662;50.114;8.626;2024-02-26T10:37:46;5.85;;;4.78;;
49738;SDS011;53662;50.114;8.626;2024-02-26T10:40:12;7.32;;;4.63;;
49738;SDS011;53662;50.114;8.626;2024-02-26T10:42:39;5.18;;;3.85;;
49738;SDS011;53662;50.114;8.626;2024-02-26T10:45:05;7.82;;;4.45;;
49738;SDS011;53662;50.114;8.626;2024-02-26T10:47:31;8.20;;;4.65;;
49738;SDS011;53662;50.114;8.626;2024-02-26T10:49:58;6.22;;;4.57;;
49738;SDS011;53662;50.114;8.626;2024-02-26T10:52:24;8.20;;;4.50;;
49738;SDS011;53662;50.114;8.626;2024-02-26T10:54:53;4.60;;;4.13;;
49738;SDS011;53662;50.114;8.626;2024-02-26T10:57:19;4.63;;;4.03;;
49738;SDS011;53662;50.114;8.626;2024-02-26T10:59:46;4.65;;;4.25;;
49738;SDS011;53662;50.114;8.626;2024-02-26T11:02:12;4.95;;;4.38;;
49738;SDS011;53662;50.114;8.626;2024-02-26T11:04:39;7.88;;;4.57;;
49738;SDS011;53662;50.114;8.626;2024-02-26T11:07:05;4.55;;;4.03;;
49738;SDS011;53662;50.114;8.626;2024-02-26T11:09:31;4.90;;;4.38;;
49738;SDS011;53662;50.114;8.626;2024-02-26T11:11:58;5.25;;;4.40;;
49738;SDS011;53662;50.114;8.626;2024-02-26T11:14:24;5.85;;;4.35;;
49738;SDS011;53662;50.114;8.626;2024-02-26T11:16:51;7.70;;;4.75;;
49738;SDS011;53662;50.114;8.626;2024-02-26T11:19:17;12.95;;;4.88;;
49738;SDS011;53662;50.114;8.626;2024-02-26T11:21:43;4.60;;;3.90;;
49738;SDS011;53662;50.114;8.626;2024-02-26T11:24:11;8.18;;;4.65;;
49738;SDS011;53662;50.114;8.626;2024-02-26T11:26:48;19.17;;;4.60;;
49738;SDS011;53662;50.114;8.626;2024-02-26T11:29:16;5.07;;;4.22;;
49738;SDS011;53662;50.114;8.626;2024-02-26T11:31:43;5.60;;;4.80;;
49738;SDS011;53662;50.114;8.626;2024-02-26T11:34:09;10.20;;;4.53;;
49738;SDS011;53662;50.114;8.626;2024-02-26T11:36:36;16.77;;;5.03;;
49738;SDS011;53662;50.114;8.626;2024-02-26T11:39:04;7.28;;;4.88;;
49738;SDS011;53662;50.114;8.626;2024-02-26T11:41:30;8.88;;;6.20;;
49738;SDS011;53662;50.114;8.626;2024-02-26T11:44:00;8.73;;;5.47;;
49738;SDS011;53662;50.114;8.626;2024-02-26T11:48:59;15.27;;;4.70;;
49738;SDS011;53662;50.114;8.626;2024-02-26T11:51:32;16.38;;;4.47;;
49738;SDS011;53662;50.114;8.626;2024-02-26T11:53:58;12.48;;;4.70;;
49738;SDS011;53662;50.114;8.626;2024-02-26T11:56:24;9.23;;;4.05;;
49738;SDS011;53662;50.114;8.626;2024-02-26T11:59:01;22.02;;;4.28;;
49738;SDS011;53662;50.114;8.626;2024-02-26T12:01:37;10.82;;;4.97;;
49738;SDS011;53662;50.114;8.626;2024-02-26T12:04:08;4.47;;;4.07;;
49738;SDS011;53662;50.114;8.626;2024-02-26T12:09:33;3.70;;;3.40;;
49738;SDS011;53662;50.114;8.626;2024-02-26T12:12:01;5.65;;;3.88;;
49738;SDS011;53662;50.114;8.626;2024-02-26T12:14:27;6.03;;;3.63;;
49738;SDS011;53662;50.114;8.626;2024-02-26T12:16:53;4.10;;;3.80;;
49738;SDS011;53662;50.114;8.626;2024-02-26T12:19:20;4.18;;;3.78;;
49738;SDS011;53662;50.114;8.626;2024-02-26T12:21:50;4.90;;;3.70;;
49738;SDS011;53662;50.114;8.626;2024-02-26T12:24:17;3.83;;;3.53;;
49738;SDS011;53662;50.114;8.626;2024-02-26T12:26:44;4.63;;;3.67;;
49738;SDS011;53662;50.114;8.626;2024-02-26T12:29:10;4.20;;;3.72;;
49738;SDS011;53662;50.114;8.626;2024-02-26T12:31:37;3.95;;;3.60;;
49738;SDS011;53662;50.114;8.626;2024-02-26T12:34:03;7.05;;;3.60;;
49738;SDS011;53662;50.114;8.626;2024-02-26T12:36:30;5.05;;;3.95;;
49738;SDS011;53662;50.114;8.626;2024-02-26T12:38:56;3.92;;;3.60;;
49738;SDS011;53662;50.114;8.626;2024-02-26T12:41:22;6.85;;;3.83;;
49738;SDS011;53662;50.114;8.626;2024-02-26T12:43:48;4.13;;;3.30;;
49738;SDS011;53662;50.114;8.626;2024-02-26T12:46:14;3.95;;;3.65;;
49738;SDS011;53662;50.114;8.626;2024-02-26T12:48:44;4.05;;;3.58;;
49738;SDS011;53662;50.114;8.626;2024-02-26T12:51:11;3.97;;;3.60;;
49738;SDS011;53662;50.114;8.626;2024-02-26T12:53:38;10.75;;;4.00;;
49738;SDS011;53662;50.114;8.626;2024-02-26T12:56:05;3.85;;;3.50;;
49738;SDS011;53662;50.114;8.626;2024-02-26T12:58:32;9.82;;;3.45;;
49738;SDS011;53662;50.114;8.626;2024-02-26T13:00:58;4.20;;;3.25;;
49738;SDS011;53662;50.114;8.626;2024-02-26T13:03:24;4.50;;;4.07;;
49738;SDS011;53662;50.114;8.626;2024-02-26T13:05:52;6.55;;;3.83;;
49738;SDS011;53662;50.114;8.626;2024-02-26T13:08:19;4.38;;;3.50;;
49738;SDS011;53662;50.114;8.626;2024-02-26T13:10:48;4.30;;;4.00;;
49738;SDS011;53662;50.114;8.626;2024-02-26T13:13:16;6.13;;;3.53;;
49738;SDS011;53662;50.114;8.626;2024-02-26T13:15:42;4.90;;;4.10;;
49738;SDS011;53662;50.114;8.626;2024-02-26T13:18:09;4.72;;;4.00;;
49738;SDS011;53662;50.114;8.626;2024-02-26T13:20:35;10.90;;;4.15;;
49738;SDS011;53662;50.114;8.626;2024-02-26T13:23:04;7.45;;;4.28;;
49738;SDS011;53662;50.114;8.626;2024-02-26T13:25:31;13.75;;;3.72;;
49738;SDS011;53662;50.114;8.626;2024-02-26T13:28:06;8.45;;;3.80;;
49738;SDS011;53662;50.114;8.626;2024-02-26T13:30:34;6.22;;;4.32;;
49738;SDS011;53662;50.114;8.626;2024-02-26T13:35:53;18.75;;;4.80;;
49738;SDS011;53662;50.114;8.626;2024-02-26T13:38:19;7.35;;;3.85;;
49738;SDS011;53662;50.114;8.626;2024-02-26T13:40:45;14.77;;;4.18;;
49738;SDS011;53662;50.114;8.626;2024-02-26T13:43:11;9.40;;;4.05;;
49738;SDS011;53662;50.114;8.626;2024-02-26T13:45:37;9.52;;;3.75;;
49738;SDS011;53662;50.114;8.626;2024-02-26T13:48:04;6.63;;;3.83;;
49738;SDS011;53662;50.114;8.626;2024-02-26T13:50:31;12.57;;;4.05;;
49738;SDS011;53662;50.114;8.626;2024-02-26T13:52:57;8.90;;;3.78;;
49738;SDS011;53662;50.114;8.626;2024-02-26T13:55:26;5.93;;;3.60;;
49738;SDS011;53662;50.114;8.626;2024-02-26T13:57:53;10.10;;;3.75;;
49738;SDS011;53662;50.114;8.626;2024-02-26T14:00:19;7.60;;;4.40;;
49738;SDS011;53662;50.114;8.626;2024-02-26T14:02:46;7.65;;;3.85;;
49738;SDS011;53662;50.114;8.626;2024-02-26T14:05:12;8.02;;;3.28;;
49738;SDS011;53662;50.114;8.626;2024-02-26T14:07:37;5.70;;;3.90;;
49738;SDS011;53662;50.114;8.626;2024-02-26T14:10:03;5.95;;;3.88;;
49738;SDS011;53662;50.114;8.626;2024-02-26T14:12:30;13.98;;;3.88;;
49738;SDS011;53662;50.114;8.626;2024-02-26T14:14:56;4.30;;;3.88;;
49738;SDS011;53662;50.114;8.626;2024-02-26T14:17:23;4.97;;;3.40;;
49738;SDS011;53662;50.114;8.626;2024-02-26T14:19:49;4.72;;;3.70;;
49738;SDS011;53662;50.114;8.626;2024-02-26T14:22:17;5.63;;;3.28;;
49738;SDS011;53662;50.114;8.626;2024-02-26T14:24:43;17.13;;;4.70;;
49738;SDS011;53662;50.114;8.626;2024-02-26T14:27:09;8.93;;;3.50;;
49738;SDS011;53662;50.114;8.626;2024-02-26T14:29:36;19.90;;;4.25;;
49738;SDS011;53662;50.114;8.626;2024-02-26T14:32:05;10.45;;;4.15;;
49738;SDS011;53662;50.114;8.626;2024-02-26T14:34:31;11.48;;;3.45;;
49738;SDS011;53662;50.114;8.626;2024-02-26T14:36:56;14.82;;;4.72;;
49738;SDS011;53662;50.114;8.626;2024-02-26T14:39:22;18.83;;;5.28;;
49738;SDS011;53662;50.114;8.626;2024-02-26T14:41:48;20.90;;;4.43;;
49738;SDS011;53662;50.114;8.626;2024-02-26T14:44:14;8.82;;;3.50;;
49738;SDS011;53662;50.114;8.626;2024-02-26T14:46:40;4.28;;;3.47;;
49738;SDS011;53662;50.114;8.626;2024-02-26T14:49:06;8.52;;;3.58;;